Laukaa, Finland
Kieli:  Suomi
CurCond
Päivitetty02/07/2022 14:54 
 

Lähistön Lentoasemien Säätiloja:

 

EFJY - Jyvaskyla (mil/C,) Finland
Etäisyys Sääasemalta: PKo 21km
Päivitetty: 02/07/2022 14:50
Selkeätä
Selkeätä
 Tuulen suunta Ka
Tuuli: Ka 19 km/h
Yhteenveto: Selkeätä
Näkyvyys: Enemmän Kuin 10 km
2022/07/02 11:50 EFJY 021150Z AUTO 13010KT 110V170 CAVOK 28/1
EFHA - Halli (fin-Afb), Finland
Etäisyys Sääasemalta: Lo 56km
Päivitetty: 02/07/2022 14:50
Selkeätä
Selkeätä
 Tuulen suunta Ka
Tuuli: Ka 19 km/h
Lämpötila: 29°C
Kastepiste: 11°C
Ilmankosteus: 33%
Ilmanpaine: 1017 hPa
Yhteenveto: Selkeätä
Näkyvyys: Enemmän Kuin 10 km
2022/07/02 11:50 EFHA 021150Z AUTO 14010KT 110V190 CAVOK 29/11 Q1017
EFMI - Mikkeli, Finland
Etäisyys Sääasemalta: IKa 105km
Päivitetty: 02/07/2022 14:50
Selkeätä
Selkeätä
 Tuulen suunta IKa
Tuuli: IKa 17 km/h
Lämpötila: 29°C
Heat Index: 29°C
Kastepiste: 16°C
Ilmankosteus: 45%
Ilmanpaine: 1018 hPa
Yhteenveto: Selkeätä
Näkyvyys: Enemmän Kuin 10 km
2022/07/02 11:50 EFMI 021150Z AUTO 11009KT 080V150 CAVOK 29/16 Q1018
 
EFTP - Tampere/Pirkkala, Finland
Etäisyys Sääasemalta: Lo 135km
Päivitetty: 02/07/2022 14:50
Lähistöllä Sadekuuroja, Ukkospilviä
Lähistöllä Sadekuuroja, Ukkospilviä
 Tuulen suunta E
Tuuli: E 20 km/h
Lämpötila: 28°C
Heat Index: 29°C
Kastepiste: 18°C
Ilmankosteus: 55%
Ilmanpaine: 1016 hPa
Yhteenveto: Lähistöllä Sadekuuroja
Pilvisyys: Ukkospilviä
Näkyvyys: 10 km
Pilvisyystiedot: Enimmäkseen pilvistä 1372 m
2022/07/02 11:50 EFTP 021150Z AUTO 19011KT 150V220 9999 VCSH BKN045 //////CB 28/18 Q1016
EFKU - Kuopio (mil/Civ), Finland
Etäisyys Sääasemalta: Ko 146km
Päivitetty: 02/07/2022 14:50
Selkeätä
Selkeätä
 Tuulen suunta E
Tuuli: E 15 km/h
Lämpötila: 29°C
Heat Index: 28°C
Kastepiste: 14°C
Ilmankosteus: 40%
Ilmanpaine: 1018 hPa
Yhteenveto: Selkeätä
Näkyvyys: Enemmän Kuin 10 km
2022/07/02 11:50 EFKU 021150Z AUTO 17008KT 130V200 CAVOK 29/14 Q1018
EFSI - Seinajoki-Ilmajo, Finland
Etäisyys Sääasemalta: LLu 149km
Päivitetty: 02/07/2022 14:50
Puolipilvistä
Puolipilvistä
 Tuulen suunta EKa
Tuuli: EKa 26 km/h
Lämpötila: 28°C
Heat Index: 29°C
Kastepiste: 18°C
Ilmankosteus: 55%
Ilmanpaine: 1015 hPa
Pilvisyys: Puolipilvistä
Näkyvyys: 10 km
Pilvisyystiedot: Puolipilvistä 1219 m
2022/07/02 11:50 EFSI 021150Z AUTO 16014KT 130V200 9999 SCT040 28/18 Q1015